Time;durP1;ratioP1;P1;durP2;ratioP2;P2;SDS_P1;SDS_P2;PMS_P1;PMS_P2;Temp;Humidity;BMP_temperature;BMP_pressure;BME280_temperature;BME280_humidity;BME280_pressure;Samples;Min_cycle;Max_cycle;Signal;HPM_P1;HPM_P2
2023/07/22 00:04:30;;;;;;;;;;;;;;;15.18;85.92;101293.78;21089548;28;19923;-62
2023/07/22 00:14:53;;;;;;;;;;;;;;;15.04;86.51;101296.97;21101468;27;19930;-61
2023/07/22 00:25:14;;;;;;;;;;;;;;;14.94;86.12;101291.25;21114283;27;19978;-61
2023/07/22 00:35:36;;;;;;;;;;;;;;;14.95;86.03;101298.19;21098134;27;20413;-61
2023/07/22 00:45:58;;;;;;;;;;;;;;;14.90;85.22;101294.94;21108332;27;19931;-61
2023/07/22 00:56:19;;;;;;;;;;;;;;;14.83;87.01;101298.66;21104311;27;19986;-61
2023/07/22 01:06:42;;;;;;;;;;;;;;;14.72;86.44;101295.63;21106005;27;19938;-61
2023/07/22 01:17:05;;;;;;;;;;;;;;;14.66;86.38;101275.06;21102441;27;20288;-61
2023/07/22 01:27:26;;;;;;;;;;;;;;;14.51;87.08;101286.06;21101392;27;19946;-61
2023/07/22 01:37:48;;;;;;;;;;;;;;;14.50;87.31;101284.38;21099956;27;19924;-62
2023/07/22 01:48:09;;;;;;;;;;;;;;;14.43;87.32;101282.91;21107282;27;19931;-61
2023/07/22 01:58:31;;;;;;;;;;;;;;;14.38;89.85;101279.63;21087621;27;19923;-61
2023/07/22 02:08:53;;;;;;;;;;;;;;;14.30;88.21;101281.69;21094634;27;19936;-61
2023/07/22 02:19:15;;;;;;;;;;;;;;;14.14;90.98;101285.72;21085316;27;20426;-61
2023/07/22 02:29:36;;;;;;;;;;;;;;;14.06;90.12;101288.59;21099597;27;19928;-61
2023/07/22 02:39:58;;;;;;;;;;;;;;;13.96;89.69;101287.25;21105743;27;19927;-62
2023/07/22 02:50:19;;;;;;;;;;;;;;;13.95;89.87;101315.94;21101002;27;19935;-61
2023/07/22 03:00:42;;;;;;;;;;;;;;;13.84;90.40;101313.72;21095631;27;19932;-62
2023/07/22 03:11:03;;;;;;;;;;;;;;;13.88;90.57;101319.69;21092865;27;20402;-62
2023/07/22 03:21:25;;;;;;;;;;;;;;;13.76;91.67;101325.28;21097805;27;20342;-61
2023/07/22 03:31:46;;;;;;;;;;;;;;;13.76;90.37;101330.50;21088835;27;20013;-61
2023/07/22 03:42:08;;;;;;;;;;;;;;;13.66;92.68;101344.75;21093525;27;20295;-61
2023/07/22 03:52:30;;;;;;;;;;;;;;;13.63;92.56;101334.41;21112894;27;19977;-61
2023/07/22 04:02:52;;;;;;;;;;;;;;;13.63;92.59;101329.22;21102938;27;19924;-61
2023/07/22 04:13:14;;;;;;;;;;;;;;;13.69;91.72;101342.03;21102968;27;19928;-61
2023/07/22 04:23:35;;;;;;;;;;;;;;;13.76;91.96;101356.50;21111626;27;19924;-61
2023/07/22 04:33:57;;;;;;;;;;;;;;;13.65;91.83;101356.03;21107236;27;19934;-61
2023/07/22 04:44:19;;;;;;;;;;;;;;;13.70;91.77;101356.72;21091420;27;19932;-61
2023/07/22 04:54:41;;;;;;;;;;;;;;;13.84;92.81;101362.31;21117047;27;19968;-61
2023/07/22 05:05:03;;;;;;;;;;;;;;;13.95;88.95;101366.22;21100439;27;20319;-61
2023/07/22 05:15:24;;;;;;;;;;;;;;;14.23;91.66;101368.69;21101529;27;19924;-61
2023/07/22 05:25:53;;;;;;;;;;;;;;;14.44;89.91;101352.31;21099996;27;20016;-61
2023/07/22 05:36:14;;;;;;;;;;;;;;;14.54;87.24;101364.06;21104224;27;19924;-61
2023/07/22 05:46:37;;;;;;;;;;;;;;;14.76;87.31;101359.75;21113889;27;19923;-61
2023/07/22 05:56:58;;;;;;;;;;;;;;;14.90;86.72;101378.31;21096908;27;19931;-62
2023/07/22 06:07:20;;;;;;;;;;;;;;;15.04;85.65;101381.22;21092353;27;19924;-62
2023/07/22 06:17:41;;;;;;;;;;;;;;;15.13;86.34;101379.19;21099341;27;20011;-62
2023/07/22 06:28:03;;;;;;;;;;;;;;;15.26;87.33;101372.53;21094411;27;19981;-62
2023/07/22 06:38:24;;;;;;;;;;;;;;;15.54;84.70;101386.19;21095546;27;20499;-62
2023/07/22 06:48:47;;;;;;;;;;;;;;;15.84;84.55;101380.50;21096130;27;20011;-62
2023/07/22 06:59:08;;;;;;;;;;;;;;;15.94;84.07;101365.31;21083154;27;19928;-62
2023/07/22 07:09:30;;;;;;;;;;;;;;;16.19;85.78;101365.09;21093295;27;19932;-62
2023/07/22 07:19:51;;;;;;;;;;;;;;;16.40;82.42;101374.56;21108798;27;20022;-61
2023/07/22 07:30:13;;;;;;;;;;;;;;;16.60;82.34;101366.69;21099461;27;19927;-62
2023/07/22 07:40:34;;;;;;;;;;;;;;;16.76;81.28;101368.53;21083595;28;20011;-62
2023/07/22 07:50:56;;;;;;;;;;;;;;;17.19;78.90;101376.94;21080717;28;20591;-62
2023/07/22 08:01:17;;;;;;;;;;;;;;;17.42;78.46;101379.28;21100978;28;19931;-61
2023/07/22 08:11:39;;;;;;;;;;;;;;;17.42;77.93;101385.38;21098409;28;19931;-62
2023/07/22 08:22:00;;;;;;;;;;;;;;;17.36;78.01;101376.97;21095117;28;19923;-62
2023/07/22 08:32:22;;;;;;;;;;;;;;;17.44;78.92;101382.66;21094156;27;20014;-62
2023/07/22 08:42:45;;;;;;;;;;;;;;;17.66;77.09;101378.09;21108378;27;19924;-62
2023/07/22 08:53:07;;;;;;;;;;;;;;;17.73;76.81;101374.22;21088320;27;20379;-62
2023/07/22 09:03:29;;;;;;;;;;;;;;;17.87;76.90;101369.16;21093364;27;20427;-62
2023/07/22 09:13:51;;;;;;;;;;;;;;;17.97;77.13;101358.13;21092671;27;19942;-62
2023/07/22 09:24:20;;;;;;;;;;;;;;;18.25;75.98;101367.16;21096442;27;19924;-62
2023/07/22 09:34:55;;;;;;;;;;;;;;;18.51;75.03;101354.38;21102119;27;20023;-62
2023/07/22 09:45:18;;;;;;;;;;;;;;;18.78;74.63;101347.63;21092993;27;19931;-62
2023/07/22 09:55:39;;;;;;;;;;;;;;;18.96;73.77;101343.13;21118658;27;20019;-62
2023/07/22 10:06:03;;;;;;;;;;;;;;;19.04;73.29;101344.38;21078002;27;19928;-62
2023/07/22 10:16:25;;;;;;;;;;;;;;;19.20;74.56;101333.00;21095232;27;19967;-62
2023/07/22 10:26:50;;;;;;;;;;;;;;;19.41;71.92;101331.81;21105414;27;19932;-62
2023/07/22 10:37:13;;;;;;;;;;;;;;;19.38;72.56;101329.34;21084603;27;20551;-62
2023/07/22 10:47:36;;;;;;;;;;;;;;;19.43;73.26;101314.19;21099606;27;20415;-62
2023/07/22 10:58:03;;;;;;;;;;;;;;;19.34;72.88;101331.31;21099950;27;19924;-62
2023/07/22 11:08:39;;;;;;;;;;;;;;;19.30;71.38;101323.69;21088311;27;19962;-62
2023/07/22 11:19:00;;;;;;;;;;;;;;;19.19;71.93;101318.19;21096181;27;19931;-62
2023/07/22 11:29:21;;;;;;;;;;;;;;;19.04;73.92;101322.56;21090377;27;19963;-63
2023/07/22 11:39:44;;;;;;;;;;;;;;;18.67;75.99;101329.03;21091837;28;20380;-62
2023/07/22 11:50:06;;;;;;;;;;;;;;;18.36;78.41;101339.47;21097850;28;20015;-62
2023/07/22 12:00:27;;;;;;;;;;;;;;;18.01;83.56;101364.06;21100098;28;19938;-63
2023/07/22 12:10:58;;;;;;;;;;;;;;;17.68;85.26;101356.16;21113660;27;19934;-63
2023/07/22 12:21:19;;;;;;;;;;;;;;;17.44;90.42;101356.50;21123310;27;19937;-63
2023/07/22 12:31:41;;;;;;;;;;;;;;;17.31;92.11;101343.19;21085345;27;19974;-63
2023/07/22 12:42:02;;;;;;;;;;;;;;;17.32;93.98;101351.88;21109936;27;19931;-63
2023/07/22 12:52:24;;;;;;;;;;;;;;;17.46;93.03;101333.72;21088567;27;19928;-63
2023/07/22 13:02:46;;;;;;;;;;;;;;;17.59;94.59;101334.84;21105311;27;19941;-63
2023/07/22 13:13:07;;;;;;;;;;;;;;;17.49;91.79;101333.63;21092987;27;20026;-63
2023/07/22 13:23:29;;;;;;;;;;;;;;;17.35;94.01;101321.19;21085646;27;19930;-63
2023/07/22 13:33:50;;;;;;;;;;;;;;;17.39;94.98;101312.25;21089563;27;20023;-63
2023/07/22 13:44:12;;;;;;;;;;;;;;;17.24;93.71;101327.88;21098715;27;19924;-64
2023/07/22 13:54:34;;;;;;;;;;;;;;;16.99;92.44;101329.06;21100916;27;19924;-63
2023/07/22 14:04:55;;;;;;;;;;;;;;;17.06;97.58;101325.25;21109703;27;19977;-63
2023/07/22 14:15:16;;;;;;;;;;;;;;;17.03;97.52;101314.91;21105440;27;19931;-63
2023/07/22 14:25:38;;;;;;;;;;;;;;;17.10;96.15;101326.78;21104429;27;19939;-63
2023/07/22 14:35:59;;;;;;;;;;;;;;;17.13;94.77;101324.94;21102775;27;20319;-62
2023/07/22 14:46:21;;;;;;;;;;;;;;;17.08;96.16;101318.16;21090300;27;19923;-63
2023/07/22 14:56:42;;;;;;;;;;;;;;;17.10;97.96;101318.09;21087656;27;19955;-63
2023/07/22 15:07:04;;;;;;;;;;;;;;;16.93;95.26;101313.69;21092952;27;19928;-62
2023/07/22 15:17:26;;;;;;;;;;;;;;;16.77;96.77;101307.50;21099120;27;19928;-62
2023/07/22 15:27:48;;;;;;;;;;;;;;;16.62;96.31;101287.31;21088770;27;19932;-63
2023/07/22 15:38:10;;;;;;;;;;;;;;;16.65;95.27;101271.47;21099668;27;19962;-63
2023/07/22 15:48:31;;;;;;;;;;;;;;;16.70;98.51;101259.03;21111559;27;19928;-63
2023/07/22 15:58:53;;;;;;;;;;;;;;;16.67;97.18;101256.56;21110642;27;20382;-63
2023/07/22 16:09:15;;;;;;;;;;;;;;;16.70;99.45;101256.41;21125211;27;20009;-63
2023/07/22 16:19:36;;;;;;;;;;;;;;;16.71;97.93;101260.75;21106997;27;20030;-63
2023/07/22 16:29:58;;;;;;;;;;;;;;;16.73;98.21;101269.38;21106864;27;20010;-63
2023/07/22 16:40:19;;;;;;;;;;;;;;;16.74;99.54;101265.81;21116702;27;20039;-63
2023/07/22 16:50:41;;;;;;;;;;;;;;;16.66;98.64;101259.28;21116895;27;19924;-63
2023/07/22 17:01:02;;;;;;;;;;;;;;;16.59;98.63;101248.25;21108066;27;20622;-63
2023/07/22 17:11:25;;;;;;;;;;;;;;;16.55;97.30;101249.34;21098734;27;19990;-63
2023/07/22 17:21:47;;;;;;;;;;;;;;;16.51;100.00;101237.34;21099939;27;20740;-63
2023/07/22 17:32:08;;;;;;;;;;;;;;;16.51;100.00;101231.25;21105706;27;20306;-63
2023/07/22 17:42:30;;;;;;;;;;;;;;;16.54;100.00;101231.94;21094331;27;20626;-63
2023/07/22 17:52:51;;;;;;;;;;;;;;;16.52;100.00;101218.13;21103133;27;19991;-62
2023/07/22 18:03:13;;;;;;;;;;;;;;;16.52;100.00;101202.44;21103096;27;19924;-62
2023/07/22 18:13:34;;;;;;;;;;;;;;;16.43;100.00;101181.09;21112413;27;19936;-62
2023/07/22 18:23:56;;;;;;;;;;;;;;;16.44;100.00;101193.25;21103587;27;19923;-63
2023/07/22 18:34:21;;;;;;;;;;;;;;;16.46;100.00;101202.72;21106655;27;20447;-62
2023/07/22 18:44:43;;;;;;;;;;;;;;;16.38;100.00;101198.75;21088477;27;19931;-63
2023/07/22 18:55:04;;;;;;;;;;;;;;;16.40;100.00;101204.75;21101063;27;19931;-63
2023/07/22 19:05:26;;;;;;;;;;;;;;;16.31;100.00;101200.84;21088699;27;19934;-63
2023/07/22 19:15:50;;;;;;;;;;;;;;;16.35;100.00;101197.16;21082437;27;19930;-63
2023/07/22 19:26:12;;;;;;;;;;;;;;;16.37;100.00;101184.84;21095424;27;19958;-63
2023/07/22 19:36:33;;;;;;;;;;;;;;;16.38;100.00;101180.47;21086985;28;19928;-63
2023/07/22 19:46:55;;;;;;;;;;;;;;;16.34;100.00;101190.22;21091361;28;20047;-63
2023/07/22 19:57:16;;;;;;;;;;;;;;;16.34;100.00;101195.44;21092879;28;19928;-63
2023/07/22 20:07:38;;;;;;;;;;;;;;;16.34;100.00;101198.06;21087949;28;20567;-63
2023/07/22 20:17:59;;;;;;;;;;;;;;;16.29;100.00;101193.97;21089864;28;19939;-63
2023/07/22 20:28:21;;;;;;;;;;;;;;;16.23;100.00;101192.50;21092679;27;19923;-63
2023/07/22 20:38:43;;;;;;;;;;;;;;;16.21;100.00;101196.94;21101961;27;20595;-64
2023/07/22 20:49:04;;;;;;;;;;;;;;;16.21;100.00;101196.13;21111994;27;20400;-63
2023/07/22 20:59:25;;;;;;;;;;;;;;;16.22;100.00;101193.44;21101765;27;19932;-63
2023/07/22 21:09:47;;;;;;;;;;;;;;;16.19;100.00;101201.41;21098907;27;19928;-63
2023/07/22 21:20:09;;;;;;;;;;;;;;;16.18;100.00;101199.72;21091531;27;19932;-63
2023/07/22 21:30:30;;;;;;;;;;;;;;;16.13;100.00;101193.88;21101247;27;19941;-63
2023/07/22 21:40:52;;;;;;;;;;;;;;;16.10;100.00;101183.56;21103866;27;20418;-63
2023/07/22 21:51:14;;;;;;;;;;;;;;;16.08;100.00;101169.72;21081438;27;19955;-63
2023/07/22 22:01:36;;;;;;;;;;;;;;;16.07;100.00;101168.91;21105675;27;19930;-63
2023/07/22 22:11:57;;;;;;;;;;;;;;;16.05;100.00;101157.69;21110922;27;19931;-63
2023/07/22 22:22:19;;;;;;;;;;;;;;;16.04;100.00;101147.31;21101072;27;20318;-63
2023/07/22 22:32:41;;;;;;;;;;;;;;;16.02;100.00;101138.72;21088372;27;19924;-63
2023/07/22 22:43:02;;;;;;;;;;;;;;;16.05;100.00;101133.31;21096026;27;19928;-63
2023/07/22 22:53:24;;;;;;;;;;;;;;;16.02;100.00;101123.88;21097752;27;19928;-62
2023/07/22 23:03:45;;;;;;;;;;;;;;;16.00;100.00;101119.66;21097225;27;20371;-63
2023/07/22 23:14:07;;;;;;;;;;;;;;;16.01;100.00;101124.78;21095728;27;20559;-63
2023/07/22 23:24:28;;;;;;;;;;;;;;;15.98;100.00;101111.03;21097173;27;20384;-63
2023/07/22 23:34:51;;;;;;;;;;;;;;;15.96;100.00;101098.06;21105324;27;19931;-63
2023/07/22 23:45:12;;;;;;;;;;;;;;;16.03;100.00;101072.50;21092208;28;19935;-64
2023/07/22 23:55:34;;;;;;;;;;;;;;;16.04;100.00;101082.03;21095931;28;20284;-64
